sensor_id;sensor_type;location;lat;lon;timestamp;temperature;humidity
4673;DHT22;61885;53.560;9.940;2023-04-24T00:01:46;12.00;99.90
4673;DHT22;61885;53.560;9.940;2023-04-24T00:04:18;12.00;99.90
4673;DHT22;61885;53.560;9.940;2023-04-24T00:06:48;12.00;99.90
4673;DHT22;61885;53.560;9.940;2023-04-24T00:09:21;12.00;99.90
4673;DHT22;61885;53.560;9.940;2023-04-24T00:11:53;12.00;99.90
4673;DHT22;61885;53.560;9.940;2023-04-24T00:14:23;12.00;99.90
4673;DHT22;61885;53.560;9.940;2023-04-24T00:16:52;12.00;99.90
4673;DHT22;61885;53.560;9.940;2023-04-24T00:19:22;12.00;99.90
4673;DHT22;61885;53.560;9.940;2023-04-24T00:21:51;12.00;99.90
4673;DHT22;61885;53.560;9.940;2023-04-24T00:24:21;12.00;99.90
4673;DHT22;61885;53.560;9.940;2023-04-24T00:26:53;12.00;99.90
4673;DHT22;61885;53.560;9.940;2023-04-24T00:29:23;11.90;99.90
4673;DHT22;61885;53.560;9.940;2023-04-24T00:31:54;11.90;99.90
4673;DHT22;61885;53.560;9.940;2023-04-24T00:34:24;11.90;99.90
4673;DHT22;61885;53.560;9.940;2023-04-24T00:36:54;11.80;99.90
4673;DHT22;61885;53.560;9.940;2023-04-24T00:39:24;11.80;99.90
4673;DHT22;61885;53.560;9.940;2023-04-24T00:41:56;11.80;99.90
4673;DHT22;61885;53.560;9.940;2023-04-24T00:44:28;11.80;99.90
4673;DHT22;61885;53.560;9.940;2023-04-24T00:46:58;11.80;99.90
4673;DHT22;61885;53.560;9.940;2023-04-24T00:49:29;11.80;99.90
4673;DHT22;61885;53.560;9.940;2023-04-24T00:51:59;11.70;99.90
4673;DHT22;61885;53.560;9.940;2023-04-24T00:54:29;11.70;99.90
4673;DHT22;61885;53.560;9.940;2023-04-24T00:57:01;11.70;99.90
4673;DHT22;61885;53.560;9.940;2023-04-24T00:59:32;11.70;99.90
4673;DHT22;61885;53.560;9.940;2023-04-24T01:02:03;11.60;99.90
4673;DHT22;61885;53.560;9.940;2023-04-24T01:04:33;11.60;99.90
4673;DHT22;61885;53.560;9.940;2023-04-24T01:07:03;11.60;99.90
4673;DHT22;61885;53.560;9.940;2023-04-24T01:09:36;11.60;99.90
4673;DHT22;61885;53.560;9.940;2023-04-24T01:12:08;11.50;99.90
4673;DHT22;61885;53.560;9.940;2023-04-24T01:14:38;11.50;99.90
4673;DHT22;61885;53.560;9.940;2023-04-24T01:17:08;11.50;99.90
4673;DHT22;61885;53.560;9.940;2023-04-24T01:19:38;11.50;99.90
4673;DHT22;61885;53.560;9.940;2023-04-24T01:22:12;11.50;99.90
4673;DHT22;61885;53.560;9.940;2023-04-24T01:24:43;11.50;99.90
4673;DHT22;61885;53.560;9.940;2023-04-24T01:27:12;11.50;99.90
4673;DHT22;61885;53.560;9.940;2023-04-24T01:29:42;11.50;99.90
4673;DHT22;61885;53.560;9.940;2023-04-24T01:32:12;11.50;99.90
4673;DHT22;61885;53.560;9.940;2023-04-24T01:34:42;11.50;99.90
4673;DHT22;61885;53.560;9.940;2023-04-24T01:37:14;11.50;99.90
4673;DHT22;61885;53.560;9.940;2023-04-24T01:39:46;11.60;99.90
4673;DHT22;61885;53.560;9.940;2023-04-24T01:42:16;11.60;99.90
4673;DHT22;61885;53.560;9.940;2023-04-24T01:44:46;11.60;99.90
4673;DHT22;61885;53.560;9.940;2023-04-24T01:47:16;11.70;99.90
4673;DHT22;61885;53.560;9.940;2023-04-24T01:49:46;11.70;99.90
4673;DHT22;61885;53.560;9.940;2023-04-24T01:52:19;11.70;99.90
4673;DHT22;61885;53.560;9.940;2023-04-24T01:54:49;11.70;99.90
4673;DHT22;61885;53.560;9.940;2023-04-24T01:57:19;11.70;99.90
4673;DHT22;61885;53.560;9.940;2023-04-24T01:59:48;11.70;99.90
4673;DHT22;61885;53.560;9.940;2023-04-24T02:02:18;11.70;99.90
4673;DHT22;61885;53.560;9.940;2023-04-24T02:04:50;11.70;99.90
4673;DHT22;61885;53.560;9.940;2023-04-24T02:07:22;11.70;99.90
4673;DHT22;61885;53.560;9.940;2023-04-24T02:09:53;11.60;99.90
4673;DHT22;61885;53.560;9.940;2023-04-24T02:12:23;11.60;99.90
4673;DHT22;61885;53.560;9.940;2023-04-24T02:14:52;11.60;99.90
4673;DHT22;61885;53.560;9.940;2023-04-24T02:17:22;11.60;99.90
4673;DHT22;61885;53.560;9.940;2023-04-24T02:19:54;11.60;99.90
4673;DHT22;61885;53.560;9.940;2023-04-24T02:22:27;11.60;99.90
4673;DHT22;61885;53.560;9.940;2023-04-24T02:24:56;11.60;99.90
4673;DHT22;61885;53.560;9.940;2023-04-24T02:27:28;11.60;99.90
4673;DHT22;61885;53.560;9.940;2023-04-24T02:29:57;11.50;99.90
4673;DHT22;61885;53.560;9.940;2023-04-24T02:32:29;11.50;99.90
4673;DHT22;61885;53.560;9.940;2023-04-24T02:35:01;11.50;99.90
4673;DHT22;61885;53.560;9.940;2023-04-24T02:37:34;11.50;99.90
4673;DHT22;61885;53.560;9.940;2023-04-24T02:40:05;11.40;99.90
4673;DHT22;61885;53.560;9.940;2023-04-24T02:42:37;11.30;99.90
4673;DHT22;61885;53.560;9.940;2023-04-24T02:45:08;11.20;99.90
4673;DHT22;61885;53.560;9.940;2023-04-24T02:47:37;11.20;99.90
4673;DHT22;61885;53.560;9.940;2023-04-24T02:50:09;11.20;99.90
4673;DHT22;61885;53.560;9.940;2023-04-24T02:52:42;11.10;99.90
4673;DHT22;61885;53.560;9.940;2023-04-24T02:55:12;11.10;99.90
4673;DHT22;61885;53.560;9.940;2023-04-24T02:57:42;11.10;99.90
4673;DHT22;61885;53.560;9.940;2023-04-24T03:00:13;11.00;99.90
4673;DHT22;61885;53.560;9.940;2023-04-24T03:02:45;11.00;99.90
4673;DHT22;61885;53.560;9.940;2023-04-24T03:05:16;10.90;99.90
4673;DHT22;61885;53.560;9.940;2023-04-24T03:07:48;10.90;99.90
4673;DHT22;61885;53.560;9.940;2023-04-24T03:10:19;10.90;99.90
4673;DHT22;61885;53.560;9.940;2023-04-24T03:12:49;10.90;99.90
4673;DHT22;61885;53.560;9.940;2023-04-24T03:15:19;10.90;99.90
4673;DHT22;61885;53.560;9.940;2023-04-24T03:17:49;10.80;99.90
4673;DHT22;61885;53.560;9.940;2023-04-24T03:20:19;10.80;99.90
4673;DHT22;61885;53.560;9.940;2023-04-24T03:22:52;10.70;99.90
4673;DHT22;61885;53.560;9.940;2023-04-24T03:25:22;10.70;99.90
4673;DHT22;61885;53.560;9.940;2023-04-24T03:27:54;10.70;99.90
4673;DHT22;61885;53.560;9.940;2023-04-24T03:30:24;10.60;99.90
4673;DHT22;61885;53.560;9.940;2023-04-24T03:32:53;10.70;99.90
4673;DHT22;61885;53.560;9.940;2023-04-24T03:35:26;10.60;99.90
4673;DHT22;61885;53.560;9.940;2023-04-24T03:37:58;10.60;99.90
4673;DHT22;61885;53.560;9.940;2023-04-24T03:40:28;10.50;99.90
4673;DHT22;61885;53.560;9.940;2023-04-24T03:43:00;10.50;99.90
4673;DHT22;61885;53.560;9.940;2023-04-24T03:45:32;10.50;99.90
4673;DHT22;61885;53.560;9.940;2023-04-24T03:48:02;10.50;99.90
4673;DHT22;61885;53.560;9.940;2023-04-24T03:50:31;10.50;99.90
4673;DHT22;61885;53.560;9.940;2023-04-24T03:53:05;10.50;99.90
4673;DHT22;61885;53.560;9.940;2023-04-24T03:55:35;10.50;99.90
4673;DHT22;61885;53.560;9.940;2023-04-24T03:58:09;10.60;99.90
4673;DHT22;61885;53.560;9.940;2023-04-24T04:00:40;10.60;99.90
4673;DHT22;61885;53.560;9.940;2023-04-24T04:03:11;10.60;99.90
4673;DHT22;61885;53.560;9.940;2023-04-24T04:05:41;10.50;99.90
4673;DHT22;61885;53.560;9.940;2023-04-24T04:08:13;10.60;99.90
4673;DHT22;61885;53.560;9.940;2023-04-24T04:10:45;10.60;99.90
4673;DHT22;61885;53.560;9.940;2023-04-24T04:13:15;10.60;99.90
4673;DHT22;61885;53.560;9.940;2023-04-24T04:15:46;10.50;99.90
4673;DHT22;61885;53.560;9.940;2023-04-24T04:18:16;10.50;99.90
4673;DHT22;61885;53.560;9.940;2023-04-24T04:20:48;10.50;99.90
4673;DHT22;61885;53.560;9.940;2023-04-24T04:23:25;10.50;99.90
4673;DHT22;61885;53.560;9.940;2023-04-24T04:25:55;10.50;99.90
4673;DHT22;61885;53.560;9.940;2023-04-24T04:28:27;10.60;99.90
4673;DHT22;61885;53.560;9.940;2023-04-24T04:30:58;10.50;99.90
4673;DHT22;61885;53.560;9.940;2023-04-24T04:33:28;10.50;99.90
4673;DHT22;61885;53.560;9.940;2023-04-24T04:35:58;10.50;99.90
4673;DHT22;61885;53.560;9.940;2023-04-24T04:38:31;10.50;99.90
4673;DHT22;61885;53.560;9.940;2023-04-24T04:41:04;10.50;99.90
4673;DHT22;61885;53.560;9.940;2023-04-24T04:43:33;10.50;99.90
4673;DHT22;61885;53.560;9.940;2023-04-24T04:46:05;10.60;99.90
4673;DHT22;61885;53.560;9.940;2023-04-24T04:48:38;10.60;99.90
4673;DHT22;61885;53.560;9.940;2023-04-24T04:51:08;10.70;99.90
4673;DHT22;61885;53.560;9.940;2023-04-24T04:53:40;10.80;99.90
4673;DHT22;61885;53.560;9.940;2023-04-24T04:56:11;10.80;99.90
4673;DHT22;61885;53.560;9.940;2023-04-24T04:58:41;10.80;99.90
4673;DHT22;61885;53.560;9.940;2023-04-24T05:01:11;10.70;99.90
4673;DHT22;61885;53.560;9.940;2023-04-24T05:03:41;10.70;99.90
4673;DHT22;61885;53.560;9.940;2023-04-24T05:06:10;11.00;99.90
4673;DHT22;61885;53.560;9.940;2023-04-24T05:08:43;10.70;99.90
4673;DHT22;61885;53.560;9.940;2023-04-24T05:11:14;10.70;99.90
4673;DHT22;61885;53.560;9.940;2023-04-24T05:13:57;10.70;99.90
4673;DHT22;61885;53.560;9.940;2023-04-24T05:16:27;10.70;99.90
4673;DHT22;61885;53.560;9.940;2023-04-24T05:18:57;10.70;99.90
4673;DHT22;61885;53.560;9.940;2023-04-24T05:21:27;10.70;99.90
4673;DHT22;61885;53.560;9.940;2023-04-24T05:24:00;10.80;99.90
4673;DHT22;61885;53.560;9.940;2023-04-24T05:26:29;10.70;99.90
4673;DHT22;61885;53.560;9.940;2023-04-24T05:28:59;10.80;99.90
4673;DHT22;61885;53.560;9.940;2023-04-24T05:31:31;10.80;99.90
4673;DHT22;61885;53.560;9.940;2023-04-24T05:34:01;10.80;99.90
4673;DHT22;61885;53.560;9.940;2023-04-24T05:36:32;10.90;99.90
4673;DHT22;61885;53.560;9.940;2023-04-24T05:39:04;10.90;99.90
4673;DHT22;61885;53.560;9.940;2023-04-24T05:41:34;10.90;99.90
4673;DHT22;61885;53.560;9.940;2023-04-24T05:44:04;10.90;99.90
4673;DHT22;61885;53.560;9.940;2023-04-24T05:46:33;10.90;99.90
4673;DHT22;61885;53.560;9.940;2023-04-24T05:49:03;11.00;99.90
4673;DHT22;61885;53.560;9.940;2023-04-24T05:51:33;11.00;99.90
4673;DHT22;61885;53.560;9.940;2023-04-24T05:54:08;11.00;99.90
4673;DHT22;61885;53.560;9.940;2023-04-24T05:56:42;11.10;99.90
4673;DHT22;61885;53.560;9.940;2023-04-24T05:59:14;11.10;99.90
4673;DHT22;61885;53.560;9.940;2023-04-24T06:01:44;11.20;99.90
4673;DHT22;61885;53.560;9.940;2023-04-24T06:04:13;11.10;99.90
4673;DHT22;61885;53.560;9.940;2023-04-24T06:06:43;11.10;99.90
4673;DHT22;61885;53.560;9.940;2023-04-24T06:09:15;11.20;99.90
4673;DHT22;61885;53.560;9.940;2023-04-24T06:11:45;11.20;99.90
4673;DHT22;61885;53.560;9.940;2023-04-24T06:14:15;11.20;99.90
4673;DHT22;61885;53.560;9.940;2023-04-24T06:16:45;11.30;99.90
4673;DHT22;61885;53.560;9.940;2023-04-24T06:19:18;11.30;99.90
4673;DHT22;61885;53.560;9.940;2023-04-24T06:21:48;11.40;99.10
4673;DHT22;61885;53.560;9.940;2023-04-24T06:24:24;11.40;94.90
4673;DHT22;61885;53.560;9.940;2023-04-24T06:26:57;11.50;91.50
4673;DHT22;61885;53.560;9.940;2023-04-24T06:29:27;11.50;87.80
4673;DHT22;61885;53.560;9.940;2023-04-24T06:32:15;11.50;86.90
4673;DHT22;61885;53.560;9.940;2023-04-24T06:34:46;11.60;79.60
4673;DHT22;61885;53.560;9.940;2023-04-24T06:37:17;11.60;78.20
4673;DHT22;61885;53.560;9.940;2023-04-24T06:39:50;11.70;72.80
4673;DHT22;61885;53.560;9.940;2023-04-24T06:42:20;11.70;61.60
4673;DHT22;61885;53.560;9.940;2023-04-24T06:44:51;11.70;63.90
4673;DHT22;61885;53.560;9.940;2023-04-24T06:47:20;11.70;62.10
4673;DHT22;61885;53.560;9.940;2023-04-24T06:49:50;11.70;44.20
4673;DHT22;61885;53.560;9.940;2023-04-24T06:52:21;11.80;38.50
4673;DHT22;61885;53.560;9.940;2023-04-24T06:55:00;11.90;30.50
4673;DHT22;61885;53.560;9.940;2023-04-24T06:57:34;11.90;29.30
4673;DHT22;61885;53.560;9.940;2023-04-24T07:00:07;12.00;27.90
4673;DHT22;61885;53.560;9.940;2023-04-24T07:02:36;12.10;26.90
4673;DHT22;61885;53.560;9.940;2023-04-24T07:05:08;12.10;24.50
4673;DHT22;61885;53.560;9.940;2023-04-24T07:07:39;12.00;24.90
4673;DHT22;61885;53.560;9.940;2023-04-24T07:10:13;12.10;25.10
4673;DHT22;61885;53.560;9.940;2023-04-24T07:12:44;12.20;25.20
4673;DHT22;61885;53.560;9.940;2023-04-24T07:15:14;12.30;24.70
4673;DHT22;61885;53.560;9.940;2023-04-24T07:17:44;12.40;23.30
4673;DHT22;61885;53.560;9.940;2023-04-24T07:20:14;12.50;21.60
4673;DHT22;61885;53.560;9.940;2023-04-24T07:22:43;12.60;19.70
4673;DHT22;61885;53.560;9.940;2023-04-24T07:25:17;12.70;19.50
4673;DHT22;61885;53.560;9.940;2023-04-24T07:27:48;12.60;16.10
4673;DHT22;61885;53.560;9.940;2023-04-24T07:30:25;12.40;18.60
4673;DHT22;61885;53.560;9.940;2023-04-24T07:32:58;12.20;14.80
4673;DHT22;61885;53.560;9.940;2023-04-24T07:35:28;12.10;16.20
4673;DHT22;61885;53.560;9.940;2023-04-24T07:37:59;12.20;17.40
4673;DHT22;61885;53.560;9.940;2023-04-24T07:40:34;12.30;15.70
4673;DHT22;61885;53.560;9.940;2023-04-24T07:43:05;12.40;14.80
4673;DHT22;61885;53.560;9.940;2023-04-24T07:45:35;12.40;13.40
4673;DHT22;61885;53.560;9.940;2023-04-24T07:48:06;12.50;12.30
4673;DHT22;61885;53.560;9.940;2023-04-24T07:50:40;12.70;9.40
4673;DHT22;61885;53.560;9.940;2023-04-24T07:53:09;12.80;4.60
4673;DHT22;61885;53.560;9.940;2023-04-24T07:55:42;12.70;2.90
4673;DHT22;61885;53.560;9.940;2023-04-24T07:58:12;12.70;1.10
4673;DHT22;61885;53.560;9.940;2023-04-24T08:00:41;12.70;1.00
4673;DHT22;61885;53.560;9.940;2023-04-24T08:03:11;12.60;1.00
4673;DHT22;61885;53.560;9.940;2023-04-24T08:05:47;12.50;1.00
4673;DHT22;61885;53.560;9.940;2023-04-24T08:08:17;12.50;1.00
4673;DHT22;61885;53.560;9.940;2023-04-24T08:10:49;12.60;1.00
4673;DHT22;61885;53.560;9.940;2023-04-24T08:13:19;12.60;1.00
4673;DHT22;61885;53.560;9.940;2023-04-24T08:15:49;12.50;1.00
4673;DHT22;61885;53.560;9.940;2023-04-24T08:18:18;12.70;1.00
4673;DHT22;61885;53.560;9.940;2023-04-24T08:20:49;12.80;1.00
4673;DHT22;61885;53.560;9.940;2023-04-24T08:23:18;12.80;1.00
4673;DHT22;61885;53.560;9.940;2023-04-24T08:25:51;12.70;1.00
4673;DHT22;61885;53.560;9.940;2023-04-24T08:28:21;12.70;1.00
4673;DHT22;61885;53.560;9.940;2023-04-24T08:30:51;12.70;1.00
4673;DHT22;61885;53.560;9.940;2023-04-24T08:33:22;12.70;1.00
4673;DHT22;61885;53.560;9.940;2023-04-24T08:35:53;12.70;1.00
4673;DHT22;61885;53.560;9.940;2023-04-24T08:38:24;12.80;1.00
4673;DHT22;61885;53.560;9.940;2023-04-24T08:40:59;12.80;1.00
4673;DHT22;61885;53.560;9.940;2023-04-24T08:43:35;12.80;1.00
4673;DHT22;61885;53.560;9.940;2023-04-24T08:46:05;12.70;1.00
4673;DHT22;61885;53.560;9.940;2023-04-24T08:48:36;12.60;1.00
4673;DHT22;61885;53.560;9.940;2023-04-24T08:51:09;12.60;1.00
4673;DHT22;61885;53.560;9.940;2023-04-24T08:53:39;12.80;1.00
4673;DHT22;61885;53.560;9.940;2023-04-24T08:56:11;12.90;1.00
4673;DHT22;61885;53.560;9.940;2023-04-24T08:58:43;12.80;1.00
4673;DHT22;61885;53.560;9.940;2023-04-24T09:01:13;12.90;1.00
4673;DHT22;61885;53.560;9.940;2023-04-24T09:03:45;12.90;1.00
4673;DHT22;61885;53.560;9.940;2023-04-24T09:06:16;12.90;1.00
4673;DHT22;61885;53.560;9.940;2023-04-24T09:08:53;13.00;1.00
4673;DHT22;61885;53.560;9.940;2023-04-24T09:11:27;12.90;1.00
4673;DHT22;61885;53.560;9.940;2023-04-24T09:13:57;13.10;1.00
4673;DHT22;61885;53.560;9.940;2023-04-24T09:16:30;13.10;1.00
4673;DHT22;61885;53.560;9.940;2023-04-24T09:19:02;13.10;1.00
4673;DHT22;61885;53.560;9.940;2023-04-24T09:21:35;13.10;1.00
4673;DHT22;61885;53.560;9.940;2023-04-24T09:24:08;13.00;1.00
4673;DHT22;61885;53.560;9.940;2023-04-24T09:26:46;12.90;1.00
4673;DHT22;61885;53.560;9.940;2023-04-24T09:29:18;13.10;1.00
4673;DHT22;61885;53.560;9.940;2023-04-24T09:31:50;12.90;1.00
4673;DHT22;61885;53.560;9.940;2023-04-24T09:34:21;13.20;1.00
4673;DHT22;61885;53.560;9.940;2023-04-24T09:36:53;12.90;1.00
4673;DHT22;61885;53.560;9.940;2023-04-24T09:39:25;12.80;1.00
4673;DHT22;61885;53.560;9.940;2023-04-24T09:42:01;12.70;1.00
4673;DHT22;61885;53.560;9.940;2023-04-24T09:44:34;12.70;1.00
4673;DHT22;61885;53.560;9.940;2023-04-24T09:47:11;12.60;1.00
4673;DHT22;61885;53.560;9.940;2023-04-24T09:49:41;12.70;1.00
4673;DHT22;61885;53.560;9.940;2023-04-24T09:52:12;12.40;1.00
4673;DHT22;61885;53.560;9.940;2023-04-24T09:54:52;12.40;1.00
4673;DHT22;61885;53.560;9.940;2023-04-24T09:57:25;12.30;1.00
4673;DHT22;61885;53.560;9.940;2023-04-24T09:59:56;12.40;1.00
4673;DHT22;61885;53.560;9.940;2023-04-24T10:02:26;12.40;1.00
4673;DHT22;61885;53.560;9.940;2023-04-24T10:05:01;12.40;1.00
4673;DHT22;61885;53.560;9.940;2023-04-24T10:07:33;12.50;1.00
4673;DHT22;61885;53.560;9.940;2023-04-24T10:10:03;12.40;1.00
4673;DHT22;61885;53.560;9.940;2023-04-24T10:12:43;12.40;1.00
4673;DHT22;61885;53.560;9.940;2023-04-24T10:15:18;12.40;1.00
4673;DHT22;61885;53.560;9.940;2023-04-24T10:17:50;12.30;1.00
4673;DHT22;61885;53.560;9.940;2023-04-24T10:20:22;12.30;1.00
4673;DHT22;61885;53.560;9.940;2023-04-24T10:22:57;12.40;1.00
4673;DHT22;61885;53.560;9.940;2023-04-24T10:25:28;12.40;1.00
4673;DHT22;61885;53.560;9.940;2023-04-24T10:28:02;12.50;1.00
4673;DHT22;61885;53.560;9.940;2023-04-24T10:30:42;12.50;1.00
4673;DHT22;61885;53.560;9.940;2023-04-24T10:33:16;12.50;1.00
4673;DHT22;61885;53.560;9.940;2023-04-24T10:35:54;12.40;1.00
4673;DHT22;61885;53.560;9.940;2023-04-24T10:38:29;12.40;1.00
4673;DHT22;61885;53.560;9.940;2023-04-24T10:41:07;12.40;1.00
4673;DHT22;61885;53.560;9.940;2023-04-24T10:43:47;12.60;1.00
4673;DHT22;61885;53.560;9.940;2023-04-24T10:46:22;12.60;1.00
4673;DHT22;61885;53.560;9.940;2023-04-24T10:48:53;12.50;1.00
4673;DHT22;61885;53.560;9.940;2023-04-24T10:51:46;12.60;1.00
4673;DHT22;61885;53.560;9.940;2023-04-24T10:54:23;12.70;1.00
4673;DHT22;61885;53.560;9.940;2023-04-24T10:56:53;12.70;1.00
4673;DHT22;61885;53.560;9.940;2023-04-24T11:00:10;12.80;1.00
4673;DHT22;61885;53.560;9.940;2023-04-24T11:02:45;12.90;1.00
4673;DHT22;61885;53.560;9.940;2023-04-24T11:05:17;12.90;1.00
4673;DHT22;61885;53.560;9.940;2023-04-24T11:08:09;12.90;1.00
4673;DHT22;61885;53.560;9.940;2023-04-24T11:10:45;13.00;1.00
4673;DHT22;61885;53.560;9.940;2023-04-24T11:13:17;13.10;1.00
4673;DHT22;61885;53.560;9.940;2023-04-24T11:16:17;13.10;1.00
4673;DHT22;61885;53.560;9.940;2023-04-24T11:18:59;13.20;1.00
4673;DHT22;61885;53.560;9.940;2023-04-24T11:21:58;13.00;1.00
4673;DHT22;61885;53.560;9.940;2023-04-24T11:24:31;13.00;1.00
4673;DHT22;61885;53.560;9.940;2023-04-24T11:27:07;12.90;1.00
4673;DHT22;61885;53.560;9.940;2023-04-24T11:29:42;12.90;1.00
4673;DHT22;61885;53.560;9.940;2023-04-24T11:32:27;12.80;1.00
4673;DHT22;61885;53.560;9.940;2023-04-24T11:34:59;13.00;1.00
4673;DHT22;61885;53.560;9.940;2023-04-24T11:37:34;13.00;1.00
4673;DHT22;61885;53.560;9.940;2023-04-24T11:40:08;13.10;1.00
4673;DHT22;61885;53.560;9.940;2023-04-24T11:42:44;13.10;1.00
4673;DHT22;61885;53.560;9.940;2023-04-24T11:45:17;13.20;1.00
4673;DHT22;61885;53.560;9.940;2023-04-24T11:47:50;13.00;1.00
4673;DHT22;61885;53.560;9.940;2023-04-24T11:50:23;12.90;1.00
4673;DHT22;61885;53.560;9.940;2023-04-24T11:52:56;13.00;1.00
4673;DHT22;61885;53.560;9.940;2023-04-24T11:55:30;12.90;1.00
4673;DHT22;61885;53.560;9.940;2023-04-24T11:58:02;12.90;1.00
4673;DHT22;61885;53.560;9.940;2023-04-24T12:00:33;13.00;1.00
4673;DHT22;61885;53.560;9.940;2023-04-24T12:03:08;14.10;1.00
4673;DHT22;61885;53.560;9.940;2023-04-24T12:05:40;13.10;1.00
4673;DHT22;61885;53.560;9.940;2023-04-24T12:08:29;13.10;1.00
4673;DHT22;61885;53.560;9.940;2023-04-24T12:11:01;13.00;1.00
4673;DHT22;61885;53.560;9.940;2023-04-24T12:13:39;13.00;1.00
4673;DHT22;61885;53.560;9.940;2023-04-24T12:16:10;13.00;1.00
4673;DHT22;61885;53.560;9.940;2023-04-24T12:18:53;13.10;1.00
4673;DHT22;61885;53.560;9.940;2023-04-24T12:21:27;13.00;1.00
4673;DHT22;61885;53.560;9.940;2023-04-24T12:23:59;12.80;1.00
4673;DHT22;61885;53.560;9.940;2023-04-24T12:26:32;12.60;1.00
4673;DHT22;61885;53.560;9.940;2023-04-24T12:29:03;12.60;1.00
4673;DHT22;61885;53.560;9.940;2023-04-24T12:31:46;12.60;1.00
4673;DHT22;61885;53.560;9.940;2023-04-24T12:34:26;12.60;1.00
4673;DHT22;61885;53.560;9.940;2023-04-24T12:37:12;12.50;1.00
4673;DHT22;61885;53.560;9.940;2023-04-24T12:40:00;12.40;1.00
4673;DHT22;61885;53.560;9.940;2023-04-24T12:42:32;12.40;1.00
4673;DHT22;61885;53.560;9.940;2023-04-24T12:45:05;12.40;1.00
4673;DHT22;61885;53.560;9.940;2023-04-24T12:47:35;12.30;1.00
4673;DHT22;61885;53.560;9.940;2023-04-24T12:50:08;12.40;1.00
4673;DHT22;61885;53.560;9.940;2023-04-24T12:52:39;12.40;1.00
4673;DHT22;61885;53.560;9.940;2023-04-24T12:55:16;12.40;1.00
4673;DHT22;61885;53.560;9.940;2023-04-24T12:57:48;12.10;1.00
4673;DHT22;61885;53.560;9.940;2023-04-24T13:00:19;12.10;1.00
4673;DHT22;61885;53.560;9.940;2023-04-24T13:02:51;12.10;1.00
4673;DHT22;61885;53.560;9.940;2023-04-24T13:05:25;12.20;1.00
4673;DHT22;61885;53.560;9.940;2023-04-24T13:07:58;12.10;1.00
4673;DHT22;61885;53.560;9.940;2023-04-24T13:10:47;12.00;1.00
4673;DHT22;61885;53.560;9.940;2023-04-24T13:13:18;12.00;1.00
4673;DHT22;61885;53.560;9.940;2023-04-24T13:15:52;12.00;1.00
4673;DHT22;61885;53.560;9.940;2023-04-24T13:18:28;12.00;1.00
4673;DHT22;61885;53.560;9.940;2023-04-24T13:21:05;11.90;1.00
4673;DHT22;61885;53.560;9.940;2023-04-24T13:23:37;11.90;1.00
4673;DHT22;61885;53.560;9.940;2023-04-24T13:26:14;12.00;1.00
4673;DHT22;61885;53.560;9.940;2023-04-24T13:28:44;12.00;1.00
4673;DHT22;61885;53.560;9.940;2023-04-24T13:31:16;12.00;1.00
4673;DHT22;61885;53.560;9.940;2023-04-24T13:33:49;11.90;1.00
4673;DHT22;61885;53.560;9.940;2023-04-24T13:36:24;11.90;1.00
4673;DHT22;61885;53.560;9.940;2023-04-24T13:38:55;11.90;1.00
4673;DHT22;61885;53.560;9.940;2023-04-24T13:41:26;11.80;1.00
4673;DHT22;61885;53.560;9.940;2023-04-24T13:44:06;11.90;1.00
4673;DHT22;61885;53.560;9.940;2023-04-24T13:46:44;11.90;1.00
4673;DHT22;61885;53.560;9.940;2023-04-24T13:49:21;11.90;1.00
4673;DHT22;61885;53.560;9.940;2023-04-24T13:51:54;12.00;1.00
4673;DHT22;61885;53.560;9.940;2023-04-24T13:54:27;12.00;1.00
4673;DHT22;61885;53.560;9.940;2023-04-24T13:56:59;12.00;1.00
4673;DHT22;61885;53.560;9.940;2023-04-24T13:59:32;12.10;1.00
4673;DHT22;61885;53.560;9.940;2023-04-24T14:02:04;12.10;1.00
4673;DHT22;61885;53.560;9.940;2023-04-24T14:04:35;12.20;1.00
4673;DHT22;61885;53.560;9.940;2023-04-24T14:07:07;12.20;1.00
4673;DHT22;61885;53.560;9.940;2023-04-24T14:09:37;12.20;1.00
4673;DHT22;61885;53.560;9.940;2023-04-24T14:12:08;12.30;1.00
4673;DHT22;61885;53.560;9.940;2023-04-24T14:14:41;12.20;1.00
4673;DHT22;61885;53.560;9.940;2023-04-24T14:17:16;12.30;1.00
4673;DHT22;61885;53.560;9.940;2023-04-24T14:19:48;12.10;1.00
4673;DHT22;61885;53.560;9.940;2023-04-24T14:22:21;12.00;1.00
4673;DHT22;61885;53.560;9.940;2023-04-24T14:24:54;11.90;1.00
4673;DHT22;61885;53.560;9.940;2023-04-24T14:27:26;11.90;1.00
4673;DHT22;61885;53.560;9.940;2023-04-24T14:29:56;11.70;1.00
4673;DHT22;61885;53.560;9.940;2023-04-24T14:32:26;11.50;1.00
4673;DHT22;61885;53.560;9.940;2023-04-24T14:34:55;11.40;5.10
4673;DHT22;61885;53.560;9.940;2023-04-24T14:37:40;11.30;7.00
4673;DHT22;61885;53.560;9.940;2023-04-24T14:40:12;11.00;64.40
4673;DHT22;61885;53.560;9.940;2023-04-24T14:42:41;10.60;99.90
4673;DHT22;61885;53.560;9.940;2023-04-24T14:45:14;10.40;99.90
4673;DHT22;61885;53.560;9.940;2023-04-24T14:47:51;10.20;99.90
4673;DHT22;61885;53.560;9.940;2023-04-24T14:50:26;10.20;99.90
4673;DHT22;61885;53.560;9.940;2023-04-24T14:53:08;10.20;99.90
4673;DHT22;61885;53.560;9.940;2023-04-24T14:55:59;10.20;99.90
4673;DHT22;61885;53.560;9.940;2023-04-24T14:58:33;10.10;99.90
4673;DHT22;61885;53.560;9.940;2023-04-24T15:01:02;10.00;99.90
4673;DHT22;61885;53.560;9.940;2023-04-24T15:03:44;10.00;99.90
4673;DHT22;61885;53.560;9.940;2023-04-24T15:06:13;9.90;99.90
4673;DHT22;61885;53.560;9.940;2023-04-24T15:08:46;9.80;99.90
4673;DHT22;61885;53.560;9.940;2023-04-24T15:11:19;9.90;99.90
4673;DHT22;61885;53.560;9.940;2023-04-24T15:13:51;9.80;99.90
4673;DHT22;61885;53.560;9.940;2023-04-24T15:16:20;9.70;99.90
4673;DHT22;61885;53.560;9.940;2023-04-24T15:18:50;11.20;99.90
4673;DHT22;61885;53.560;9.940;2023-04-24T15:21:20;12.40;99.90
4673;DHT22;61885;53.560;9.940;2023-04-24T15:23:58;9.50;99.90
4673;DHT22;61885;53.560;9.940;2023-04-24T15:26:30;9.50;99.90
4673;DHT22;61885;53.560;9.940;2023-04-24T15:29:00;9.50;99.90
4673;DHT22;61885;53.560;9.940;2023-04-24T15:31:30;9.40;99.90
4673;DHT22;61885;53.560;9.940;2023-04-24T15:33:59;9.40;99.90
4673;DHT22;61885;53.560;9.940;2023-04-24T15:36:31;9.30;99.90
4673;DHT22;61885;53.560;9.940;2023-04-24T15:39:03;9.20;99.90
4673;DHT22;61885;53.560;9.940;2023-04-24T15:41:33;9.20;99.90
4673;DHT22;61885;53.560;9.940;2023-04-24T15:44:04;9.00;99.90
4673;DHT22;61885;53.560;9.940;2023-04-24T15:46:34;9.00;99.90
4673;DHT22;61885;53.560;9.940;2023-04-24T15:49:12;8.80;99.90
4673;DHT22;61885;53.560;9.940;2023-04-24T15:51:41;8.80;99.90
4673;DHT22;61885;53.560;9.940;2023-04-24T15:54:13;8.80;99.90
4673;DHT22;61885;53.560;9.940;2023-04-24T15:56:47;8.60;99.90
4673;DHT22;61885;53.560;9.940;2023-04-24T15:59:18;8.40;99.90
4673;DHT22;61885;53.560;9.940;2023-04-24T16:01:48;8.40;99.90
4673;DHT22;61885;53.560;9.940;2023-04-24T16:04:18;8.40;99.90
4673;DHT22;61885;53.560;9.940;2023-04-24T16:06:47;8.40;99.90
4673;DHT22;61885;53.560;9.940;2023-04-24T16:09:20;8.30;99.90
4673;DHT22;61885;53.560;9.940;2023-04-24T16:11:53;8.10;99.90
4673;DHT22;61885;53.560;9.940;2023-04-24T16:14:23;8.00;99.90
4673;DHT22;61885;53.560;9.940;2023-04-24T16:16:53;8.00;99.90
4673;DHT22;61885;53.560;9.940;2023-04-24T16:19:23;7.90;99.90
4673;DHT22;61885;53.560;9.940;2023-04-24T16:21:53;7.90;99.90
4673;DHT22;61885;53.560;9.940;2023-04-24T16:24:27;7.80;99.90
4673;DHT22;61885;53.560;9.940;2023-04-24T16:26:57;7.80;99.90
4673;DHT22;61885;53.560;9.940;2023-04-24T16:29:30;7.70;99.90